createdAt,value
2018-03-07T00:01:25.026Z,6.56
2018-03-07T00:03:54.265Z,6.54
2018-03-07T00:06:23.473Z,6.51
2018-03-07T00:08:53.043Z,6.59
2018-03-07T00:11:22.387Z,6.66
2018-03-07T00:13:51.479Z,6.64
2018-03-07T00:16:21.073Z,6.63
2018-03-07T00:18:50.229Z,6.51
2018-03-07T00:21:19.465Z,6.42
2018-03-07T00:23:48.959Z,6.40
2018-03-07T00:26:18.438Z,7.03
2018-03-07T00:28:47.781Z,6.80
2018-03-07T00:31:17.149Z,6.61
2018-03-07T00:33:46.966Z,6.37
2018-03-07T00:36:16.434Z,6.18
2018-03-07T00:38:45.715Z,6.03
2018-03-07T00:41:15.109Z,5.99
2018-03-07T00:43:44.061Z,5.96
2018-03-07T00:46:13.473Z,5.94
2018-03-07T00:48:42.783Z,6.03
2018-03-07T00:51:11.857Z,6.11
2018-03-07T00:53:41.196Z,6.37
2018-03-07T00:56:10.541Z,6.23
2018-03-07T00:58:39.961Z,6.25
2018-03-07T01:01:09.377Z,6.49
2018-03-07T01:03:38.579Z,6.50
2018-03-07T01:06:08.117Z,6.51
2018-03-07T01:08:37.713Z,6.65
2018-03-07T01:11:06.890Z,6.62
2018-03-07T01:13:36.277Z,6.64
2018-03-07T01:16:05.491Z,6.55
2018-03-07T01:18:34.734Z,6.57
2018-03-07T01:21:04.194Z,6.57
2018-03-07T01:23:33.842Z,6.53
2018-03-07T01:26:02.989Z,6.55
2018-03-07T01:28:32.537Z,6.26
2018-03-07T01:31:01.703Z,6.28
2018-03-07T01:33:31.197Z,6.37
2018-03-07T01:36:00.801Z,6.33
2018-03-07T01:38:29.901Z,6.38
2018-03-07T01:40:59.221Z,6.68
2018-03-07T01:43:28.621Z,6.93
2018-03-07T01:45:58.009Z,6.78
2018-03-07T01:48:27.223Z,6.65
2018-03-07T01:50:56.281Z,6.51
2018-03-07T01:53:25.452Z,6.45
2018-03-07T01:55:54.805Z,6.35
2018-03-07T01:58:24.205Z,6.26
2018-03-07T02:00:53.713Z,6.58
2018-03-07T02:03:22.948Z,6.41
2018-03-07T02:05:52.450Z,6.31
2018-03-07T02:08:21.729Z,6.41
2018-03-07T02:10:50.957Z,6.58
2018-03-07T02:13:20.229Z,6.65
2018-03-07T02:15:49.527Z,6.70
2018-03-07T02:18:18.721Z,6.73
2018-03-07T02:20:47.909Z,6.72
2018-03-07T02:23:17.313Z,6.56
2018-03-07T02:25:46.527Z,6.46
2018-03-07T02:28:15.770Z,6.23
2018-03-07T02:30:45.217Z,6.21
2018-03-07T02:33:15.186Z,6.15
2018-03-07T02:35:44.533Z,6.33
2018-03-07T02:38:13.739Z,6.18
2018-03-07T02:40:43.112Z,6.07
2018-03-07T02:43:13.603Z,5.97
2018-03-07T02:45:43.013Z,5.97
2018-03-07T02:48:12.607Z,5.91
2018-03-07T02:50:42.345Z,5.93
2018-03-07T02:53:11.737Z,5.70
2018-03-07T02:55:41.253Z,5.67
2018-03-07T02:58:10.326Z,5.72
2018-03-07T03:00:39.697Z,5.59
2018-03-07T03:03:09.201Z,5.56
2018-03-07T03:05:38.131Z,5.77
2018-03-07T03:08:07.431Z,5.63
2018-03-07T03:10:36.526Z,5.55
2018-03-07T03:13:05.711Z,5.87
2018-03-07T03:15:34.781Z,6.11
2018-03-07T03:18:04.185Z,6.68
2018-03-07T03:20:33.390Z,6.63
2018-03-07T03:23:02.826Z,6.49
2018-03-07T03:25:32.185Z,6.75
2018-03-07T03:28:01.945Z,6.78
2018-03-07T03:30:31.107Z,7.04
2018-03-07T03:33:00.805Z,7.51
2018-03-07T03:35:30.250Z,7.69
2018-03-07T03:37:59.667Z,7.78
2018-03-07T03:40:28.812Z,7.83
2018-03-07T03:42:58.115Z,7.74
2018-03-07T03:45:27.409Z,8.19
2018-03-07T03:47:56.709Z,8.18
2018-03-07T03:50:26.013Z,8.48
2018-03-07T03:52:55.463Z,8.43
2018-03-07T03:55:24.613Z,8.45
2018-03-07T03:57:53.826Z,8.00
2018-03-07T04:00:23.260Z,6.86
2018-03-07T04:02:52.500Z,6.48
2018-03-07T04:05:21.878Z,6.26
2018-03-07T04:07:51.041Z,6.14
2018-03-07T04:10:20.417Z,6.04
2018-03-07T04:12:49.653Z,6.13
2018-03-07T04:15:19.121Z,6.10
2018-03-07T04:17:48.430Z,6.22
2018-03-07T04:20:17.765Z,6.39
2018-03-07T04:22:47.269Z,6.28
2018-03-07T04:25:16.691Z,6.90
2018-03-07T04:27:45.882Z,6.90
2018-03-07T04:30:15.170Z,7.03
2018-03-07T04:32:44.225Z,7.18
2018-03-07T04:35:13.638Z,6.86
2018-03-07T04:37:42.729Z,6.97
2018-03-07T04:40:12.028Z,6.79
2018-03-07T04:42:41.475Z,7.07
2018-03-07T04:45:10.888Z,7.55
2018-03-07T04:47:40.077Z,7.46
2018-03-07T04:50:09.547Z,7.86
2018-03-07T04:52:39.145Z,7.63
2018-03-07T04:55:08.241Z,7.58
2018-03-07T04:57:37.858Z,7.97
2018-03-07T05:00:07.191Z,8.40
2018-03-07T05:02:36.570Z,8.32
2018-03-07T05:05:05.809Z,8.71
2018-03-07T05:07:35.220Z,8.56
2018-03-07T05:10:04.463Z,8.73
2018-03-07T05:12:33.957Z,9.14
2018-03-07T05:15:03.200Z,9.07
2018-03-07T05:17:32.420Z,8.92
2018-03-07T05:20:01.866Z,8.44
2018-03-07T05:22:31.325Z,8.36
2018-03-07T05:25:00.509Z,8.42
2018-03-07T05:27:29.528Z,8.92
2018-03-07T05:29:58.695Z,9.38
2018-03-07T05:32:27.920Z,9.53
2018-03-07T05:34:57.253Z,9.60
2018-03-07T05:37:26.317Z,9.51
2018-03-07T05:39:55.673Z,9.71
2018-03-07T05:42:24.761Z,9.79
2018-03-07T05:44:54.242Z,9.97
2018-03-07T05:47:23.722Z,10.28
2018-03-07T05:49:53.029Z,10.10
2018-03-07T05:52:22.360Z,10.58
2018-03-07T05:54:51.768Z,11.01
2018-03-07T05:57:21.082Z,10.78
2018-03-07T05:59:50.581Z,11.62
2018-03-07T06:02:19.659Z,11.82
2018-03-07T06:04:49.237Z,12.32
2018-03-07T06:07:18.237Z,12.50
2018-03-07T06:09:47.310Z,12.62
2018-03-07T06:12:16.434Z,12.27
2018-03-07T06:14:45.817Z,11.92
2018-03-07T06:17:15.217Z,11.98
2018-03-07T06:19:44.375Z,11.95
2018-03-07T06:22:13.869Z,11.84
2018-03-07T06:24:43.169Z,11.60
2018-03-07T06:27:12.586Z,11.78
2018-03-07T06:29:42.795Z,12.07
2018-03-07T06:32:12.107Z,12.02
2018-03-07T06:34:41.545Z,12.27
2018-03-07T06:37:10.905Z,12.23
2018-03-07T06:39:40.413Z,11.91
2018-03-07T06:42:09.631Z,12.01
2018-03-07T06:44:39.217Z,12.18
2018-03-07T06:47:08.631Z,12.14
2018-03-07T06:49:37.829Z,12.41
2018-03-07T06:52:07.226Z,12.54
2018-03-07T06:54:36.566Z,12.88
2018-03-07T06:57:06.039Z,13.15
2018-03-07T06:59:35.392Z,13.47
2018-03-07T07:02:04.453Z,13.60
2018-03-07T07:04:33.635Z,13.68
2018-03-07T07:07:02.825Z,13.85
2018-03-07T07:09:32.070Z,13.87
2018-03-07T07:12:01.886Z,14.10
2018-03-07T07:14:31.447Z,14.12
2018-03-07T07:17:00.975Z,14.20
2018-03-07T07:19:30.197Z,14.47
2018-03-07T07:21:59.549Z,14.26
2018-03-07T07:24:28.788Z,14.35
2018-03-07T07:26:58.059Z,14.37
2018-03-07T07:29:27.259Z,14.50
2018-03-07T07:31:56.785Z,14.37
2018-03-07T07:34:26.053Z,14.40
2018-03-07T07:36:55.561Z,14.54
2018-03-07T07:39:24.863Z,14.50
2018-03-07T07:41:54.283Z,14.47
2018-03-07T07:44:23.669Z,14.60
2018-03-07T07:46:52.975Z,14.61
2018-03-07T07:49:22.216Z,14.78
2018-03-07T07:51:51.858Z,14.88
2018-03-07T07:54:21.099Z,15.00
2018-03-07T07:56:50.319Z,14.99
2018-03-07T07:59:19.458Z,14.99
2018-03-07T08:01:48.377Z,14.97
2018-03-07T08:04:18.078Z,14.88
2018-03-07T08:06:47.388Z,14.95
2018-03-07T08:09:16.944Z,14.77
2018-03-07T08:11:46.405Z,14.95
2018-03-07T08:14:15.994Z,15.13
2018-03-07T08:16:45.487Z,15.07
2018-03-07T08:19:14.936Z,15.17
2018-03-07T08:21:44.121Z,15.09
2018-03-07T08:24:13.326Z,15.10
2018-03-07T08:26:42.562Z,15.18
2018-03-07T08:29:11.663Z,15.18
2018-03-07T08:31:41.101Z,15.30
2018-03-07T08:34:10.366Z,15.36
2018-03-07T08:36:39.850Z,15.52
2018-03-07T08:39:08.821Z,15.64
2018-03-07T08:41:37.982Z,15.77
2018-03-07T08:44:06.959Z,15.78
2018-03-07T08:46:36.257Z,15.60
2018-03-07T08:49:05.733Z,15.47
2018-03-07T08:51:35.224Z,15.28
2018-03-07T08:54:04.465Z,15.16
2018-03-07T08:56:33.813Z,15.27
2018-03-07T08:59:03.129Z,15.16
2018-03-07T09:01:32.358Z,15.10
2018-03-07T09:04:01.638Z,15.19
2018-03-07T09:06:31.156Z,15.37
2018-03-07T09:09:00.521Z,15.32
2018-03-07T09:11:29.878Z,15.36
2018-03-07T09:13:59.079Z,15.41
2018-03-07T09:16:28.363Z,15.48
2018-03-07T09:18:57.682Z,15.47
2018-03-07T09:21:26.794Z,15.55
2018-03-07T09:23:55.966Z,15.67
2018-03-07T09:26:25.422Z,15.61
2018-03-07T09:28:54.911Z,15.48
2018-03-07T09:31:24.173Z,15.47
2018-03-07T09:33:53.481Z,15.56
2018-03-07T09:36:22.582Z,15.47
2018-03-07T09:38:51.839Z,15.51
2018-03-07T09:41:21.015Z,15.44
2018-03-07T09:43:50.280Z,15.67
2018-03-07T09:46:19.526Z,15.72
2018-03-07T09:48:48.821Z,15.75
2018-03-07T09:51:18.121Z,15.78
2018-03-07T09:53:47.536Z,15.68
2018-03-07T09:56:16.968Z,15.89
2018-03-07T09:58:46.341Z,16.03
2018-03-07T10:01:15.440Z,15.99
2018-03-07T10:03:44.891Z,15.94
2018-03-07T10:06:14.175Z,16.17
2018-03-07T10:08:43.528Z,15.98
2018-03-07T10:11:12.666Z,16.19
2018-03-07T10:13:41.977Z,16.45
2018-03-07T10:16:11.017Z,16.39
2018-03-07T10:18:40.229Z,16.50
2018-03-07T10:21:09.487Z,16.78
2018-03-07T10:23:38.843Z,16.92
2018-03-07T10:26:08.295Z,17.05
2018-03-07T10:28:37.690Z,17.32
2018-03-07T10:31:07.053Z,17.53
2018-03-07T10:33:36.244Z,17.71
2018-03-07T10:36:05.323Z,17.42
2018-03-07T10:38:34.543Z,17.16
2018-03-07T10:41:03.694Z,17.26
2018-03-07T10:43:32.929Z,17.28
2018-03-07T10:46:02.019Z,17.35
2018-03-07T10:48:31.458Z,17.45
2018-03-07T10:51:00.709Z,17.23
2018-03-07T10:53:29.943Z,17.42
2018-03-07T10:55:59.440Z,17.52
2018-03-07T10:58:28.741Z,17.44
2018-03-07T11:00:58.245Z,17.65
2018-03-07T11:03:27.689Z,18.10
2018-03-07T11:05:57.166Z,18.13
2018-03-07T11:08:26.512Z,18.04
2018-03-07T11:10:55.525Z,18.16
2018-03-07T11:13:24.916Z,18.29
2018-03-07T11:15:54.206Z,18.29
2018-03-07T11:18:23.567Z,18.37
2018-03-07T11:20:52.719Z,18.25
2018-03-07T11:23:21.953Z,18.16
2018-03-07T11:25:51.257Z,17.67
2018-03-07T11:28:20.453Z,17.61
2018-03-07T11:30:49.904Z,17.66
2018-03-07T11:33:19.102Z,17.82
2018-03-07T11:35:48.606Z,17.63
2018-03-07T11:38:17.875Z,17.73
2018-03-07T11:40:46.933Z,17.43
2018-03-07T11:43:16.055Z,17.55
2018-03-07T11:45:45.214Z,17.54
2018-03-07T11:48:14.473Z,17.38
2018-03-07T11:50:43.872Z,17.26
2018-03-07T11:53:13.016Z,17.44
2018-03-07T11:55:42.253Z,17.53
2018-03-07T11:58:11.720Z,17.54
2018-03-07T12:00:41.050Z,17.36
2018-03-07T12:03:10.261Z,17.17
2018-03-07T12:05:39.829Z,17.31
2018-03-07T12:08:09.078Z,17.37
2018-03-07T12:10:38.577Z,17.32
2018-03-07T12:13:08.139Z,17.37
2018-03-07T12:15:38.201Z,17.55
2018-03-07T12:18:07.564Z,17.61
2018-03-07T12:20:36.845Z,17.74
2018-03-07T12:23:06.012Z,17.74
2018-03-07T12:25:35.890Z,17.83
2018-03-07T12:28:05.209Z,17.95
2018-03-07T12:30:34.633Z,18.29
2018-03-07T12:33:03.882Z,18.24
2018-03-07T12:35:33.244Z,18.24
2018-03-07T12:38:02.683Z,18.30
2018-03-07T12:40:32.441Z,18.26
2018-03-07T12:43:01.695Z,18.34
2018-03-07T12:45:30.781Z,18.01
2018-03-07T12:47:59.765Z,17.62
2018-03-07T12:50:29.143Z,17.87
2018-03-07T12:52:58.267Z,18.13
2018-03-07T12:55:27.781Z,18.33
2018-03-07T12:57:57.347Z,18.39
2018-03-07T13:00:26.674Z,18.68
2018-03-07T13:02:56.045Z,18.96
2018-03-07T13:05:26.231Z,19.00
2018-03-07T13:07:55.936Z,19.00
2018-03-07T13:10:25.283Z,18.92
2018-03-07T13:12:54.585Z,18.78
2018-03-07T13:15:23.881Z,18.88
2018-03-07T13:17:52.845Z,18.99
2018-03-07T13:20:22.542Z,18.93
2018-03-07T13:22:52.301Z,19.03
2018-03-07T13:25:21.721Z,19.01
2018-03-07T13:27:51.219Z,19.01
2018-03-07T13:30:20.781Z,19.09
2018-03-07T13:32:50.025Z,19.15
2018-03-07T13:35:19.381Z,19.10
2018-03-07T13:37:48.769Z,18.97
2018-03-07T13:40:18.333Z,18.85
2018-03-07T13:42:48.042Z,18.95
2018-03-07T13:45:17.708Z,18.81
2018-03-07T13:47:47.566Z,19.00
2018-03-07T13:50:17.317Z,19.15
2018-03-07T13:52:46.785Z,19.13
2018-03-07T13:55:16.393Z,19.03
2018-03-07T13:57:45.699Z,18.99
2018-03-07T14:00:15.479Z,18.80
2018-03-07T14:02:44.910Z,18.95
2018-03-07T14:05:14.682Z,18.88
2018-03-07T14:07:43.771Z,18.83
2018-03-07T14:10:13.165Z,18.96
2018-03-07T14:12:43.663Z,19.02
2018-03-07T14:15:12.968Z,19.01
2018-03-07T14:17:42.149Z,19.13
2018-03-07T14:20:11.505Z,19.31
2018-03-07T14:22:40.814Z,19.48
2018-03-07T14:25:10.153Z,19.60
2018-03-07T14:27:39.503Z,19.54
2018-03-07T14:30:08.761Z,19.59
2018-03-07T14:32:37.863Z,19.52
2018-03-07T14:35:07.219Z,19.53
2018-03-07T14:37:36.674Z,19.55
2018-03-07T14:40:06.107Z,19.53
2018-03-07T14:42:35.346Z,19.64
2018-03-07T14:45:04.566Z,19.45
2018-03-07T14:47:33.753Z,19.46
2018-03-07T14:50:02.876Z,19.69
2018-03-07T14:52:32.279Z,19.46
2018-03-07T14:55:01.362Z,19.51
2018-03-07T14:57:30.565Z,19.63
2018-03-07T14:59:59.747Z,19.50
2018-03-07T15:02:29.270Z,19.31
2018-03-07T15:04:58.624Z,19.37
2018-03-07T15:07:28.304Z,19.42
2018-03-07T15:09:57.691Z,19.50
2018-03-07T15:12:27.150Z,19.36
2018-03-07T15:14:56.345Z,19.27
2018-03-07T15:17:25.595Z,19.31
2018-03-07T15:19:54.946Z,19.47
2018-03-07T15:22:24.511Z,19.24
2018-03-07T15:24:53.629Z,19.21
2018-03-07T15:27:23.350Z,19.80
2018-03-07T15:29:52.806Z,20.46
2018-03-07T15:32:22.211Z,20.59
2018-03-07T15:34:51.778Z,20.26
2018-03-07T15:37:21.080Z,20.57
2018-03-07T15:39:50.117Z,20.63
2018-03-07T15:42:19.532Z,21.00
2018-03-07T15:44:49.487Z,20.62
2018-03-07T15:47:19.145Z,20.07
2018-03-07T15:49:48.867Z,19.50
2018-03-07T15:52:18.054Z,18.94
2018-03-07T15:54:47.623Z,18.78
2018-03-07T15:57:17.025Z,18.66
2018-03-07T15:59:46.469Z,18.27
2018-03-07T16:02:15.994Z,18.14
2018-03-07T16:04:45.085Z,18.25
2018-03-07T16:07:17.550Z,17.89
2018-03-07T16:09:46.911Z,17.67
2018-03-07T16:12:16.271Z,17.28
2018-03-07T16:14:45.721Z,17.06
2018-03-07T16:17:15.161Z,16.63
2018-03-07T16:19:44.356Z,16.30
2018-03-07T16:22:16.142Z,16.06
2018-03-07T16:24:45.445Z,15.76
2018-03-07T16:27:14.692Z,15.55
2018-03-07T16:29:43.939Z,15.42
2018-03-07T16:32:13.287Z,15.30
2018-03-07T16:34:42.589Z,15.43
2018-03-07T16:37:11.990Z,15.57
2018-03-07T16:39:41.237Z,15.24
2018-03-07T16:42:10.451Z,15.05
2018-03-07T16:44:40.042Z,15.03
2018-03-07T16:47:09.183Z,14.88
2018-03-07T16:49:38.141Z,14.80
2018-03-07T16:52:07.113Z,14.77
2018-03-07T16:54:36.422Z,15.40
2018-03-07T16:57:05.710Z,15.54
2018-03-07T16:59:34.717Z,15.49
2018-03-07T17:02:04.034Z,15.53
2018-03-07T17:04:32.997Z,15.54
2018-03-07T17:07:02.565Z,15.45
2018-03-07T17:09:31.690Z,15.60
2018-03-07T17:12:00.791Z,15.62
2018-03-07T17:14:29.979Z,15.51
2018-03-07T17:16:59.217Z,15.32
2018-03-07T17:19:28.549Z,15.17
2018-03-07T17:21:57.747Z,15.18
2018-03-07T17:24:27.007Z,15.16
2018-03-07T17:26:56.213Z,15.28
2018-03-07T17:29:25.565Z,15.26
2018-03-07T17:31:54.928Z,15.37
2018-03-07T17:34:24.302Z,15.27
2018-03-07T17:36:53.476Z,14.84
2018-03-07T17:39:22.669Z,14.61
2018-03-07T17:41:52.139Z,14.42
2018-03-07T17:44:22.581Z,14.52
2018-03-07T17:46:51.687Z,14.32
2018-03-07T17:49:20.752Z,14.15
2018-03-07T17:51:49.982Z,14.24
2018-03-07T17:54:19.053Z,14.20
2018-03-07T17:56:48.563Z,14.10
2018-03-07T17:59:17.886Z,13.91
2018-03-07T18:01:47.145Z,13.67
2018-03-07T18:04:16.702Z,13.58
2018-03-07T18:06:46.097Z,13.54
2018-03-07T18:09:15.045Z,13.39
2018-03-07T18:11:44.175Z,13.29
2018-03-07T18:14:13.234Z,13.21
2018-03-07T18:16:42.437Z,13.19
2018-03-07T18:19:11.891Z,13.08
2018-03-07T18:21:41.202Z,12.91
2018-03-07T18:24:10.276Z,12.90
2018-03-07T18:26:39.273Z,12.72
2018-03-07T18:29:08.330Z,12.60
2018-03-07T18:31:37.495Z,12.57
2018-03-07T18:34:06.889Z,12.63
2018-03-07T18:36:36.069Z,12.72
2018-03-07T18:39:05.547Z,12.69
2018-03-07T18:41:34.751Z,12.73
2018-03-07T18:44:04.293Z,12.79
2018-03-07T18:46:33.393Z,12.87
2018-03-07T18:49:02.609Z,13.01
2018-03-07T18:51:31.638Z,13.26
2018-03-07T18:54:00.725Z,13.49
2018-03-07T18:56:29.771Z,14.09
2018-03-07T18:58:59.205Z,14.37
2018-03-07T19:01:28.369Z,14.20
2018-03-07T19:03:57.763Z,14.28
2018-03-07T19:06:27.989Z,14.02
2018-03-07T19:08:57.105Z,14.19
2018-03-07T19:11:26.392Z,14.03
2018-03-07T19:13:55.546Z,13.94
2018-03-07T19:16:24.682Z,13.75
2018-03-07T19:18:53.777Z,13.67
2018-03-07T19:21:22.811Z,13.38
2018-03-07T19:23:51.922Z,13.28
2018-03-07T19:26:20.916Z,13.13
2018-03-07T19:28:50.062Z,13.04
2018-03-07T19:31:19.100Z,13.07
2018-03-07T19:33:48.253Z,13.14
2018-03-07T19:36:17.370Z,12.66
2018-03-07T19:38:46.625Z,12.50
2018-03-07T19:41:15.686Z,12.51
2018-03-07T19:43:44.946Z,12.64
2018-03-07T19:46:14.077Z,12.95
2018-03-07T19:48:43.183Z,13.18
2018-03-07T19:51:12.534Z,13.48
2018-03-07T19:53:41.868Z,13.26
2018-03-07T19:56:10.985Z,13.24
2018-03-07T19:58:39.988Z,13.29
2018-03-07T20:01:09.298Z,13.26
2018-03-07T20:03:38.325Z,13.44
2018-03-07T20:06:07.845Z,13.62
2018-03-07T20:08:37.125Z,13.71
2018-03-07T20:11:06.386Z,13.61
2018-03-07T20:13:35.845Z,13.87
2018-03-07T20:16:05.129Z,13.68
2018-03-07T20:18:34.127Z,13.81
2018-03-07T20:21:03.141Z,14.36
2018-03-07T20:23:32.386Z,14.70
2018-03-07T20:26:01.477Z,14.50
2018-03-07T20:28:30.497Z,14.18
2018-03-07T20:30:59.573Z,13.96
2018-03-07T20:33:28.717Z,13.81
2018-03-07T20:35:58.495Z,13.51
2018-03-07T20:38:27.723Z,13.34
2018-03-07T20:40:56.699Z,13.24
2018-03-07T20:43:26.123Z,13.08
2018-03-07T20:45:55.258Z,12.90
2018-03-07T20:48:24.245Z,12.32
2018-03-07T20:50:53.239Z,12.14
2018-03-07T20:53:22.330Z,11.89
2018-03-07T20:55:51.701Z,11.97
2018-03-07T20:58:20.961Z,12.13
2018-03-07T21:00:49.913Z,12.01
2018-03-07T21:03:19.541Z,11.48
2018-03-07T21:05:49.277Z,11.12
2018-03-07T21:08:18.337Z,10.99
2018-03-07T21:10:47.891Z,11.07
2018-03-07T21:13:17.221Z,10.50
2018-03-07T21:15:46.625Z,9.74
2018-03-07T21:18:15.881Z,9.70
2018-03-07T21:20:45.403Z,9.37
2018-03-07T21:23:15.520Z,9.55
2018-03-07T21:25:44.753Z,9.92
2018-03-07T21:28:14.317Z,10.19
2018-03-07T21:30:43.587Z,10.08
2018-03-07T21:33:12.677Z,10.06
2018-03-07T21:35:41.939Z,10.53
2018-03-07T21:38:11.245Z,10.61
2018-03-07T21:40:40.447Z,11.08
2018-03-07T21:43:09.933Z,11.07
2018-03-07T21:45:39.444Z,10.82
2018-03-07T21:48:08.598Z,11.19
2018-03-07T21:50:37.680Z,11.57
2018-03-07T21:53:06.936Z,11.12
2018-03-07T21:55:36.206Z,10.99
2018-03-07T21:58:06.191Z,10.84
2018-03-07T22:00:35.546Z,10.72
2018-03-07T22:03:04.800Z,10.65
2018-03-07T22:05:33.895Z,10.54
2018-03-07T22:08:03.230Z,10.71
2018-03-07T22:10:33.013Z,10.40
2018-03-07T22:13:02.298Z,10.27
2018-03-07T22:15:32.113Z,10.08
2018-03-07T22:18:01.399Z,9.98
2018-03-07T22:20:30.485Z,9.84
2018-03-07T22:22:59.537Z,10.00
2018-03-07T22:25:28.993Z,9.81
2018-03-07T22:27:58.081Z,9.95
2018-03-07T22:30:27.365Z,9.83
2018-03-07T22:32:56.715Z,9.68
2018-03-07T22:35:26.840Z,9.61
2018-03-07T22:37:55.932Z,9.76
2018-03-07T22:40:24.972Z,9.90
2018-03-07T22:42:54.163Z,9.96
2018-03-07T22:45:23.621Z,10.04
2018-03-07T22:47:53.231Z,9.89
2018-03-07T22:50:22.222Z,9.70
2018-03-07T22:52:51.792Z,9.48
2018-03-07T22:55:21.245Z,9.34
2018-03-07T22:57:50.568Z,9.21
2018-03-07T23:00:30.963Z,9.07
2018-03-07T23:03:00.505Z,8.93
2018-03-07T23:05:29.898Z,8.85
2018-03-07T23:07:59.060Z,8.84
2018-03-07T23:10:28.345Z,8.95
2018-03-07T23:12:57.622Z,8.78
2018-03-07T23:15:26.741Z,9.13
2018-03-07T23:17:56.189Z,9.05
2018-03-07T23:20:25.170Z,9.04
2018-03-07T23:22:54.791Z,8.91
2018-03-07T23:25:23.935Z,8.96
2018-03-07T23:27:53.009Z,8.89
2018-03-07T23:30:22.350Z,8.74
2018-03-07T23:32:51.586Z,8.73
2018-03-07T23:35:21.050Z,8.63
2018-03-07T23:37:50.303Z,8.52
2018-03-07T23:40:19.649Z,8.62
2018-03-07T23:42:48.953Z,8.66
2018-03-07T23:45:18.379Z,8.57
2018-03-07T23:47:47.652Z,8.65
2018-03-07T23:50:16.867Z,8.47
2018-03-07T23:52:46.356Z,8.39
2018-03-07T23:55:15.728Z,8.42
2018-03-07T23:57:45.165Z,8.42
